Time;durP1;ratioP1;P1;durP2;ratioP2;P2;SDS_P1;SDS_P2;PMS_P1;PMS_P2;Temp;Humidity;BMP_temperature;BMP_pressure;BME280_temperature;BME280_humidity;BME280_pressure;Samples;Min_cycle;Max_cycle;Signal;HPM_P1;HPM_P2
2022/08/27 00:00:21;;;;;;;17.60;6.47;;;;;;;19.79;50.52;99097.09;1656961;85;21005;-70
2022/08/27 00:02:53;;;;;;;12.93;5.92;;;;;;;19.73;50.67;99095.86;1683034;84;21213;-70
2022/08/27 00:05:23;;;;;;;13.72;5.28;;;;;;;19.68;50.79;99099.01;1680573;84;21049;-69
2022/08/27 00:07:52;;;;;;;17.55;5.97;;;;;;;19.62;50.81;99094.22;1680960;84;20906;-68
2022/08/27 00:10:28;;;;;;;19.90;6.03;;;;;;;19.58;51.14;99099.76;1677256;85;21449;-67
2022/08/27 00:12:58;;;;;;;13.15;5.75;;;;;;;19.54;50.89;99100.33;1656564;85;21016;-69
2022/08/27 00:15:26;;;;;;;17.90;5.87;;;;;;;19.51;51.06;99097.48;1675603;85;21112;-69
2022/08/27 00:17:58;;;;;;;16.32;5.90;;;;;;;19.49;51.06;99096.48;1655838;85;20953;-69
2022/08/27 00:20:25;;;;;;;11.38;5.05;;;;;;;19.48;51.13;99099.05;1674071;85;21553;-69
2022/08/27 00:22:54;;;;;;;17.48;5.50;;;;;;;19.45;51.29;99094.26;1672736;85;20946;-69
2022/08/27 00:25:24;;;;;;;23.12;5.60;;;;;;;19.42;51.29;99100.00;1670725;85;20969;-68
2022/08/27 00:27:55;;;;;;;12.50;5.25;;;;;;;19.38;51.32;99099.77;1678079;85;21182;-68
2022/08/27 00:30:25;;;;;;;11.35;5.58;;;;;;;19.35;51.52;99103.31;1639132;86;20950;-68
2022/08/27 00:32:57;;;;;;;14.38;5.65;;;;;;;19.32;51.53;99101.30;1640253;86;21084;-68
2022/08/27 00:35:29;;;;;;;11.15;4.92;;;;;;;19.27;51.97;99097.48;1602308;88;20919;-69
2022/08/27 00:37:59;;;;;;;12.05;5.15;;;;;;;19.24;52.12;99103.81;1632182;87;20994;-69
2022/08/27 00:40:29;;;;;;;12.23;5.87;;;;;;;19.20;52.10;99103.78;1602808;88;21449;-69
2022/08/27 00:43:02;;;;;;;9.80;5.30;;;;;;;19.17;52.07;99101.77;1602738;88;20976;-69
2022/08/27 00:45:37;;;;;;;15.20;5.17;;;;;;;19.14;52.34;99100.55;1625740;87;21458;-70
2022/08/27 00:48:04;;;;;;;;;;;;;;;19.14;52.66;99099.16;1623373;87;21159;-69
2022/08/27 00:50:45;;;;;;;16.10;4.97;;;;;;;19.11;52.59;99106.88;1626130;86;20100;-69
2022/08/27 00:53:18;;;;;;;9.45;4.83;;;;;;;19.09;52.83;99110.64;1669546;85;21306;-69
2022/08/27 00:55:52;;;;;;;15.08;5.75;;;;;;;19.06;52.85;99110.02;1670810;85;21528;-69
2022/08/27 00:58:27;;;;;;;15.23;4.90;;;;;;;19.04;52.97;99099.89;1672260;85;21441;-69
2022/08/27 01:00:55;;;;;;;10.35;5.60;;;;;;;19.04;53.10;99104.06;1638945;85;21548;-68
2022/08/27 01:03:24;;;;;;;15.23;5.62;;;;;;;19.03;53.12;99100.27;1677212;85;21131;-69
2022/08/27 01:05:56;;;;;;;11.33;5.30;;;;;;;19.03;53.37;99102.47;1674489;85;21107;-69
2022/08/27 01:08:29;;;;;;;16.00;5.42;;;;;;;19.00;53.61;99099.65;1664209;84;21583;-69
2022/08/27 01:10:57;;;;;;;13.22;5.03;;;;;;;18.97;53.67;99103.19;1678809;84;21545;-69
2022/08/27 01:13:28;;;;;;;11.63;5.47;;;;;;;18.94;53.77;99104.76;1664732;84;21071;-70
2022/08/27 01:16:03;;;;;;;15.90;5.10;;;;;;;18.89;53.84;99110.66;1669602;85;21485;-69
2022/08/27 01:18:29;;;;;;;15.05;5.70;;;;;;;18.87;54.01;99101.91;1674270;85;21138;-69
2022/08/27 01:21:08;;;;;;;12.43;5.10;;;;;;;18.85;54.06;99103.47;1671963;84;21118;-69
2022/08/27 01:24:02;;;;;;;15.18;5.37;;;;;;;18.82;54.53;99107.01;1630864;86;20962;-69
2022/08/27 01:26:32;;;;;;;9.58;5.62;;;;;;;18.77;54.55;99104.78;1597160;88;20948;-68
2022/08/27 01:29:03;;;;;;;9.53;5.42;;;;;;;18.72;54.83;99104.32;1672066;85;20999;-70
2022/08/27 01:31:30;;;;;;;10.18;5.22;;;;;;;18.68;55.07;99104.28;1672724;85;21370;-71
2022/08/27 01:34:03;;;;;;;13.10;5.40;;;;;;;18.65;55.12;99100.88;1672449;85;21465;-70
2022/08/27 01:36:37;;;;;;;9.90;5.15;;;;;;;18.63;55.40;99103.82;1665937;85;20981;-66
2022/08/27 01:39:08;;;;;;;13.60;5.75;;;;;;;18.61;55.27;99096.45;1679563;85;21111;-66
2022/08/27 01:41:36;;;;;;;16.05;5.80;;;;;;;18.60;55.51;99104.55;1656409;85;20961;-66
2022/08/27 01:44:08;;;;;;;10.20;5.58;;;;;;;18.58;55.66;99101.34;1682641;85;21216;-66
2022/08/27 01:46:38;;;;;;;16.80;5.97;;;;;;;18.57;55.77;99092.20;1663119;85;20965;-66
2022/08/27 01:49:11;;;;;;;11.48;4.72;;;;;;;18.58;55.75;99097.18;1674801;85;20937;-66
2022/08/27 01:51:41;;;;;;;15.48;5.65;;;;;;;18.57;55.72;99099.75;1618834;87;21093;-66
2022/08/27 01:54:07;;;;;;;12.60;5.78;;;;;;;18.56;55.92;99102.31;1634243;86;20899;-66
2022/08/27 01:56:43;;;;;;;15.85;5.25;;;;;;;18.55;55.99;99097.94;1633726;86;21096;-66
2022/08/27 01:59:13;;;;;;;11.18;5.67;;;;;;;18.53;56.13;99091.95;1671619;84;20949;-66
2022/08/27 02:01:49;;;;;;;13.68;5.37;;;;;;;18.52;56.30;99104.25;1661531;84;21093;-66
2022/08/27 02:04:18;;;;;;;15.03;6.10;;;;;;;18.47;56.30;99095.11;1666575;84;21027;-67
2022/08/27 02:06:48;;;;;;;12.43;5.17;;;;;;;18.45;56.49;99091.10;1665070;85;20925;-66
2022/08/27 02:09:20;;;;;;;14.80;5.72;;;;;;;18.42;56.88;99094.05;1691146;82;21239;-66
2022/08/27 02:11:55;;;;;;;18.48;5.42;;;;;;;18.39;57.08;99096.20;1673937;85;20973;-69
2022/08/27 02:14:22;;;;;;;10.15;5.67;;;;;;;18.34;57.24;99095.14;1674558;85;21000;-69
2022/08/27 02:16:56;;;;;;;13.30;5.40;;;;;;;18.30;57.38;99094.30;1667092;85;21002;-69
2022/08/27 02:19:27;;;;;;;18.17;6.03;;;;;;;18.25;57.71;99098.80;1672612;85;20941;-69
2022/08/27 02:22:01;;;;;;;15.72;5.37;;;;;;;18.20;57.94;99099.13;1670598;85;21109;-66
2022/08/27 02:24:35;;;;;;;12.80;5.58;;;;;;;18.13;58.19;99095.67;1672866;85;21009;-66
2022/08/27 02:27:05;;;;;;;14.03;6.00;;;;;;;18.09;58.55;99099.58;1673449;85;21410;-66
2022/08/27 02:29:37;;;;;;;11.48;6.53;;;;;;;18.02;58.59;99093.34;1674403;85;21116;-66
2022/08/27 02:32:05;;;;;;;13.77;5.90;;;;;;;18.00;58.91;99099.05;1674941;85;21052;-68
2022/08/27 02:34:32;;;;;;;19.25;5.87;;;;;;;17.96;59.01;99096.81;1673687;85;21499;-68
2022/08/27 02:37:03;;;;;;;14.68;6.12;;;;;;;17.91;59.33;99095.16;1670681;85;20946;-68
2022/08/27 02:39:33;;;;;;;19.40;5.83;;;;;;;17.88;59.59;99106.25;1655963;84;21079;-66
2022/08/27 02:42:01;;;;;;;25.52;6.22;;;;;;;17.83;59.94;99105.18;1675197;82;20987;-67
2022/08/27 02:44:36;;;;;;;17.90;5.78;;;;;;;17.79;60.07;99099.58;1694481;83;20974;-67
2022/08/27 02:47:07;;;;;;;11.20;5.28;;;;;;;17.76;60.30;99096.96;1703778;83;21188;-70
2022/08/27 02:49:44;;;;;;;13.68;5.95;;;;;;;17.73;60.38;99092.74;1685677;83;21004;-70
2022/08/27 02:52:13;;;;;;;21.40;5.97;;;;;;;17.71;60.46;99090.93;1697355;83;20922;-70
2022/08/27 02:54:48;;;;;;;9.28;5.25;;;;;;;17.70;60.71;99093.49;1702052;84;20914;-70
2022/08/27 02:57:19;;;;;;;16.52;6.20;;;;;;;17.68;60.87;99093.06;1696861;83;20941;-67
2022/08/27 02:59:49;;;;;;;21.35;6.78;;;;;;;17.67;60.92;99088.69;1700207;84;21125;-67
2022/08/27 03:02:19;;;;;;;15.93;5.90;;;;;;;17.66;61.00;99089.28;1699297;82;21001;-67
2022/08/27 03:04:46;;;;;;;10.82;5.70;;;;;;;17.65;61.28;99086.28;1690820;83;21029;-67
2022/08/27 03:07:14;;;;;;;9.38;5.87;;;;;;;17.64;61.34;99086.63;1685849;84;21580;-69
2022/08/27 03:09:45;;;;;;;14.90;6.50;;;;;;;17.63;61.57;99082.25;1688564;83;21031;-69
2022/08/27 03:12:15;;;;;;;17.42;6.35;;;;;;;17.63;61.69;99084.44;1690548;84;21778;-67
2022/08/27 03:14:44;;;;;;;24.07;7.22;;;;;;;17.63;61.70;99080.86;1692499;83;20914;-66
2022/08/27 03:20:06;;;;;;;19.25;6.15;;;;;;;17.67;61.71;99088.10;1689233;83;20981;-66
2022/08/27 03:22:36;;;;;;;11.80;5.45;;;;;;;17.70;61.61;99089.33;1698698;83;21602;-66
2022/08/27 03:25:06;;;;;;;25.08;6.45;;;;;;;17.72;61.55;99091.14;1701992;84;21233;-67
2022/08/27 03:27:41;;;;;;;15.55;6.67;;;;;;;17.76;61.48;99096.16;1671893;85;21025;-68
2022/08/27 03:30:15;;;;;;;17.23;5.67;;;;;;;17.79;61.43;99092.05;1696174;83;21592;-67
2022/08/27 03:32:45;;;;;;;13.03;5.67;;;;;;;17.81;61.64;99093.06;1689688;83;21587;-67
2022/08/27 03:35:19;;;;;;;11.97;6.87;;;;;;;17.84;61.45;99090.12;1698891;83;21033;-68
2022/08/27 03:37:47;;;;;;;13.20;5.95;;;;;;;17.88;61.64;99093.75;1665304;85;21120;-68
2022/08/27 03:40:18;;;;;;;15.88;5.60;;;;;;;17.89;61.57;99089.22;1706319;83;20935;-68
2022/08/27 03:42:50;;;;;;;19.90;6.00;;;;;;;17.93;61.41;99090.62;1707043;82;21479;-68
2022/08/27 03:45:17;;;;;;;12.87;6.23;;;;;;;17.94;61.55;99091.63;1707861;84;21479;-68
2022/08/27 03:47:50;;;;;;;13.60;6.30;;;;;;;17.98;61.50;99088.91;1694794;84;20932;-68
2022/08/27 03:50:17;;;;;;;15.80;6.50;;;;;;;18.02;61.42;99089.75;1642913;86;21242;-68
2022/08/27 03:52:45;;;;;;;14.90;6.15;;;;;;;18.08;61.33;99096.59;1690284;83;21573;-67
2022/08/27 03:55:15;;;;;;;13.53;6.20;;;;;;;18.10;61.50;99090.06;1693013;83;21105;-67
2022/08/27 03:57:48;;;;;;;16.00;6.30;;;;;;;18.11;61.67;99097.22;1693724;83;21046;-67
2022/08/27 04:00:25;;;;;;;12.05;6.22;;;;;;;18.14;61.36;99091.71;1678140;83;21004;-67
2022/08/27 04:02:53;;;;;;;22.02;6.47;;;;;;;18.20;61.12;99095.55;1694149;82;21781;-67
2022/08/27 04:05:25;;;;;;;22.25;6.72;;;;;;;18.25;60.83;99084.11;1694857;83;20840;-67
2022/08/27 04:07:54;;;;;;;20.43;6.70;;;;;;;18.28;61.30;99086.93;1681934;83;21830;-67
2022/08/27 04:10:26;;;;;;;22.10;7.12;;;;;;;18.32;61.37;99079.44;1686016;83;21511;-68
2022/08/27 04:12:54;;;;;;;12.85;6.12;;;;;;;18.36;61.28;99084.45;1684115;84;20888;-69
2022/08/27 04:15:27;;;;;;;14.60;6.60;;;;;;;18.40;61.30;99080.33;1680008;83;21130;-71
2022/08/27 04:17:57;;;;;;;17.50;7.03;;;;;;;18.44;61.43;99075.61;1688122;81;21040;-69
2022/08/27 04:20:27;;;;;;;17.35;6.75;;;;;;;18.52;61.49;99078.65;1690295;82;20942;-72
2022/08/27 04:23:01;;;;;;;17.48;6.95;;;;;;;18.60;62.20;99085.09;1667392;81;22237;-73
2022/08/27 04:25:31;;;;;;;;;;;;;;;18.64;61.95;99076.23;1665347;84;21478;-74
2022/08/27 04:28:02;;;;;;;19.32;7.28;;;;;;;18.72;61.42;99076.52;1688905;83;21258;-69
2022/08/27 04:30:35;;;;;;;21.50;7.53;;;;;;;18.80;61.48;99078.19;1677261;84;20943;-71
2022/08/27 04:33:05;;;;;;;14.25;6.45;;;;;;;18.87;61.83;99067.14;1680837;84;21041;-71
2022/08/27 04:35:38;;;;;;;11.83;7.10;;;;;;;18.97;61.12;99072.01;1701334;83;21301;-70
2022/08/27 04:38:16;;;;;;;15.98;6.65;;;;;;;19.07;61.08;99070.48;1695695;83;21124;-69
2022/08/27 04:43:29;;;;;;;17.62;6.65;;;;;;;19.26;60.88;99063.30;1693500;83;20997;-70
2022/08/27 04:45:57;;;;;;;17.40;7.00;;;;;;;19.35;60.40;99065.75;1696268;84;21527;-71
2022/08/27 04:48:37;;;;;;;18.02;6.92;;;;;;;19.41;60.22;99065.59;1621067;87;20928;-72
2022/08/27 04:51:03;;;;;;;20.85;6.53;;;;;;;19.47;61.23;99066.84;1707905;83;21036;-72
2022/08/27 04:53:35;;;;;;;22.60;7.28;;;;;;;19.52;62.32;99062.33;1691873;83;21401;-72
2022/08/27 04:56:05;;;;;;;12.60;6.58;;;;;;;19.57;61.98;99064.75;1697678;82;20898;-76
2022/08/27 04:58:35;;;;;;;18.42;7.53;;;;;;;19.64;61.96;99061.22;1694928;84;21022;-71
2022/08/27 05:01:03;;;;;;;24.72;8.25;;;;;;;19.68;61.85;99065.59;1703799;83;20997;-71
2022/08/27 05:03:33;;;;;;;18.77;8.73;;;;;;;19.72;61.24;99063.63;1697514;83;20930;-71
2022/08/27 05:06:04;;;;;;;27.62;8.95;;;;;;;19.76;60.88;99051.92;1696841;83;21583;-72
2022/08/27 05:08:34;;;;;;;15.98;7.37;;;;;;;19.82;60.73;99059.31;1697972;83;20894;-70
2022/08/27 05:11:08;;;;;;;18.50;6.97;;;;;;;19.89;60.22;99045.43;1692615;84;21132;-69
2022/08/27 05:13:37;;;;;;;16.62;6.90;;;;;;;19.97;61.37;99048.45;1695387;83;21028;-75
2022/08/27 05:16:10;;;;;;;14.68;7.00;;;;;;;20.00;61.08;99050.46;1701733;83;20953;-71
2022/08/27 05:18:52;;;;;;;18.67;7.72;;;;;;;20.04;61.79;99058.24;1699787;83;22416;-73
2022/08/27 05:21:23;;;;;;;14.07;6.45;;;;;;;20.04;61.64;99058.84;1704300;83;20906;-70
2022/08/27 05:23:50;;;;;;;17.37;6.40;;;;;;;20.03;61.25;99057.23;1697911;83;20997;-71
2022/08/27 05:26:23;;;;;;;19.27;6.45;;;;;;;20.00;61.06;99058.81;1703226;83;20858;-72
2022/08/27 05:29:00;;;;;;;12.70;6.45;;;;;;;20.01;61.14;99055.44;1691055;83;21107;-72
2022/08/27 05:31:31;;;;;;;12.95;5.55;;;;;;;20.04;61.20;99047.69;1682032;84;21403;-74
2022/08/27 05:34:01;;;;;;;15.72;6.87;;;;;;;20.06;60.61;99047.50;1696878;83;20926;-75
2022/08/27 05:36:32;;;;;;;18.30;6.25;;;;;;;20.10;60.34;99050.31;1691081;84;21447;-76
2022/08/27 05:39:04;;;;;;;22.65;6.55;;;;;;;20.15;60.27;99049.13;1695864;83;21480;-73
2022/08/27 05:41:34;;;;;;;15.63;6.00;;;;;;;20.23;59.88;99050.14;1700957;83;21061;-76
2022/08/27 05:44:08;;;;;;;13.43;5.67;;;;;;;20.33;59.96;99050.77;1685279;83;21520;-75
2022/08/27 05:46:39;;;;;;;;;;;;;;;20.45;59.55;99046.86;1702006;84;20992;-74
2022/08/27 05:49:15;;;;;;;14.63;5.85;;;;;;;20.57;59.60;99050.69;1685010;84;20457;-77
2022/08/27 05:51:45;;;;;;;18.45;6.50;;;;;;;20.70;59.66;99056.69;1701761;83;20871;-76
2022/08/27 05:54:18;;;;;;;16.97;6.08;;;;;;;20.83;59.28;99063.46;1700747;84;20898;-76
2022/08/27 05:56:46;;;;;;;17.98;6.37;;;;;;;20.92;59.15;99063.08;1682843;83;20994;-74
2022/08/27 06:02:05;;;;;;;27.32;6.37;;;;;;;21.10;58.68;99057.72;1698069;83;21024;-73
2022/08/27 06:04:42;;;;;;;15.48;5.83;;;;;;;21.21;58.71;99060.55;1680913;84;20997;-75
2022/08/27 06:07:12;;;;;;;16.52;6.25;;;;;;;21.30;56.93;99062.94;1668679;83;21053;-71
2022/08/27 06:09:43;;;;;;;10.53;5.58;;;;;;;21.41;57.31;99064.50;1695303;83;20981;-69
2022/08/27 06:12:14;;;;;;;15.60;5.60;;;;;;;21.52;57.17;99065.09;1698192;83;20890;-71
2022/08/27 06:14:42;;;;;;;15.78;5.55;;;;;;;21.62;57.28;99069.27;1698578;83;21026;-73
2022/08/27 06:17:12;;;;;;;13.95;6.10;;;;;;;21.71;57.53;99070.26;1668974;84;21490;-73
2022/08/27 06:19:44;;;;;;;24.45;5.55;;;;;;;21.78;56.95;99070.84;1702672;84;37062;-70
2022/08/27 06:22:18;;;;;;;19.80;5.87;;;;;;;21.85;56.42;99062.45;1667141;86;21154;-75
2022/08/27 06:24:49;;;;;;;19.87;5.45;;;;;;;21.90;56.41;99060.64;1652656;84;21583;-75
2022/08/27 06:27:19;;;;;;;15.35;5.75;;;;;;;21.96;56.21;99067.38;1660810;85;20874;-81
2022/08/27 06:29:53;;;;;;;19.57;6.17;;;;;;;22.01;55.75;99057.19;1671794;84;21035;-80
2022/08/27 06:32:22;;;;;;;13.80;5.90;;;;;;;22.08;55.72;99055.80;1671660;85;20886;-76
2022/08/27 06:34:50;;;;;;;18.32;6.10;;;;;;;22.16;56.09;99060.77;1675007;85;21148;-77
2022/08/27 06:37:20;;;;;;;13.83;5.37;;;;;;;22.19;56.01;99059.95;1676654;85;21084;-74
2022/08/27 06:39:54;;;;;;;23.98;6.17;;;;;;;22.22;54.90;99058.55;1669219;85;20946;-77
2022/08/27 06:42:18;;;;;;;22.02;5.95;;;;;;;22.24;55.00;99063.13;1675134;84;21064;-78
2022/08/27 06:44:53;;;;;;;17.42;5.65;;;;;;;22.27;54.80;99062.31;1637365;85;20924;-76
2022/08/27 06:47:22;;;;;;;20.72;6.08;;;;;;;22.32;55.14;99059.70;1672187;84;21179;-80
2022/08/27 06:49:51;;;;;;;15.65;5.75;;;;;;;22.35;55.28;99062.48;1669866;85;20906;-73
2022/08/27 06:52:21;;;;;;;19.37;6.10;;;;;;;22.40;55.16;99055.07;1653052;85;20894;-74
2022/08/27 06:54:57;;;;;;;16.90;5.72;;;;;;;22.47;55.07;99054.84;1676364;84;20937;-74
2022/08/27 06:57:33;;;;;;;12.68;4.75;;;;;;;22.53;54.90;99056.02;1676233;84;20910;-75
2022/08/27 07:00:03;;;;;;;18.32;5.28;;;;;;;22.58;54.92;99054.16;1668824;85;21157;-76
2022/08/27 07:02:35;;;;;;;19.80;5.03;;;;;;;22.62;54.15;99049.34;1674716;85;20910;-71
2022/08/27 07:05:04;;;;;;;20.27;5.47;;;;;;;22.66;54.34;99049.52;1671415;85;21025;-72
2022/08/27 07:07:35;;;;;;;19.27;5.37;;;;;;;22.73;54.41;99052.88;1666768;85;21019;-71
2022/08/27 07:10:04;;;;;;;15.58;5.72;;;;;;;22.79;54.60;99055.46;1677107;83;20997;-71
2022/08/27 07:12:33;;;;;;;22.05;5.42;;;;;;;22.83;53.89;99048.45;1675393;84;21819;-71
2022/08/27 07:15:01;;;;;;;23.12;6.90;;;;;;;22.86;53.49;99039.23;1673151;84;21072;-80
2022/08/27 07:17:32;;;;;;;23.62;6.33;;;;;;;22.89;53.43;99042.00;1678916;82;21041;-82
2022/08/27 07:20:06;;;;;;;25.10;6.00;;;;;;;22.98;54.01;99047.94;1649903;85;21501;-76
2022/08/27 07:22:35;;;;;;;18.48;5.83;;;;;;;23.04;53.01;99043.49;1640120;86;20902;-75
2022/08/27 07:25:05;;;;;;;17.62;5.42;;;;;;;23.10;52.45;99041.66;1599069;88;22437;-74
2022/08/27 07:27:36;;;;;;;18.05;5.40;;;;;;;23.18;52.71;99036.95;1672169;85;21032;-77
2022/08/27 07:30:14;;;;;;;17.67;5.53;;;;;;;23.24;51.71;99033.91;1658513;85;20917;-77
2022/08/27 07:32:45;;;;;;;18.20;4.53;;;;;;;23.29;51.72;99036.88;1665606;85;20953;-74
2022/08/27 07:35:18;;;;;;;9.75;4.17;;;;;;;23.34;51.17;99035.03;1652827;84;20945;-73
2022/08/27 07:37:47;;;;;;;7.37;4.15;;;;;;;23.41;51.91;99038.38;1666533;85;22264;-74
2022/08/27 07:40:14;;;;;;;11.53;4.58;;;;;;;23.52;51.24;99034.86;1677667;85;21008;-70
2022/08/27 07:45:33;;;;;;;12.07;5.95;;;;;;;23.81;50.80;99032.57;1674032;84;20966;-72
2022/08/27 07:48:09;;;;;;;23.62;9.15;;;;;;;24.13;51.17;99027.39;1650792;85;20937;-79
2022/08/27 07:50:42;;;;;;;12.40;5.12;;;;;;;24.39;49.17;99024.46;1676448;84;20997;-74
2022/08/27 07:53:17;;;;;;;11.95;4.97;;;;;;;24.54;48.80;99016.65;1674508;84;21575;-79
2022/08/27 07:55:48;;;;;;;11.65;4.08;;;;;;;24.57;47.66;99019.41;1669473;84;20941;-76
2022/08/27 07:58:20;;;;;;;16.35;4.85;;;;;;;24.61;47.80;99017.34;1638380;86;21002;-69
2022/08/27 08:00:49;;;;;;;26.37;5.37;;;;;;;24.74;48.14;99016.77;1646750;86;21109;-71
2022/08/27 08:03:22;;;;;;;15.55;4.55;;;;;;;24.88;47.70;99008.89;1652359;86;21743;-73
2022/08/27 08:05:52;;;;;;;21.73;4.87;;;;;;;24.95;46.98;99015.80;1682991;84;20980;-71
2022/08/27 08:08:24;;;;;;;8.78;4.55;;;;;;;24.98;46.90;99014.98;1682181;84;21020;-72
2022/08/27 08:10:58;;;;;;;14.68;6.25;;;;;;;24.93;46.81;99009.81;1684066;84;21062;-71
2022/08/27 08:13:28;;;;;;;17.17;6.45;;;;;;;24.89;47.12;98995.04;1682332;84;20980;-71
2022/08/27 08:15:57;;;;;;;32.47;6.97;;;;;;;24.91;46.32;98994.00;1686495;84;21199;-72
2022/08/27 08:18:25;;;;;;;11.40;4.70;;;;;;;24.90;46.47;98989.61;1686295;84;20928;-72
2022/08/27 08:21:04;;;;;;;17.20;4.58;;;;;;;24.86;45.65;98997.30;1687739;83;20881;-71
2022/08/27 08:23:33;;;;;;;14.25;4.92;;;;;;;24.84;45.99;98986.33;1685730;84;21488;-71
2022/08/27 08:26:04;;;;;;;12.85;4.60;;;;;;;24.83;44.50;99005.80;1683544;84;20896;-71
2022/08/27 08:28:32;;;;;;;22.82;6.15;;;;;;;24.79;45.91;99010.67;1684583;83;21557;-70
2022/08/27 08:31:02;;;;;;;13.98;5.35;;;;;;;24.80;46.23;99010.25;1684141;83;21432;-69
2022/08/27 08:33:37;;;;;;;15.35;6.25;;;;;;;24.80;45.61;99001.03;1685671;84;20932;-70
2022/08/27 08:36:15;;;;;;;20.20;6.12;;;;;;;24.80;46.19;99004.64;1683164;84;21538;-69
2022/08/27 08:38:42;;;;;;;14.38;5.85;;;;;;;24.83;44.90;98999.58;1684496;84;20937;-70
2022/08/27 08:41:43;;;;;;;21.68;5.90;;;;;;;24.86;44.46;99004.92;1683521;84;21255;-70
2022/08/27 08:44:35;;;;;;;13.85;5.05;;;;;;;24.87;44.96;98996.69;1680295;84;20946;-70
2022/08/27 08:47:18;;;;;;;43.52;6.05;;;;;;;24.91;43.81;99005.23;1666415;85;20906;-70
2022/08/27 08:50:09;;;;;;;17.05;5.17;;;;;;;24.89;43.99;99002.06;1688090;83;21017;-70
2022/08/27 08:52:58;;;;;;;11.80;4.33;;;;;;;24.88;44.57;98998.27;1699580;83;21611;-70
2022/08/27 08:55:41;;;;;;;14.55;5.35;;;;;;;24.85;44.68;98997.11;1693933;84;21636;-70
2022/08/27 08:58:28;;;;;;;16.25;4.75;;;;;;;24.84;44.59;98994.11;1688782;83;21092;-70
2022/08/27 09:00:59;;;;;;;126.18;11.28;;;;;;;24.88;45.32;98992.66;1696532;83;21024;-69
2022/08/27 09:03:39;;;;;;;56.88;7.45;;;;;;;24.91;43.98;98994.61;1701672;83;21501;-70
2022/08/27 09:06:24;;;;;;;14.93;4.92;;;;;;;24.91;43.86;98998.83;1671353;84;21113;-71
2022/08/27 09:08:55;;;;;;;17.45;5.83;;;;;;;24.88;43.22;98989.24;1640942;85;21289;-72
2022/08/27 09:11:42;;;;;;;16.85;5.35;;;;;;;24.84;44.62;98988.50;1687278;84;21460;-71
2022/08/27 09:14:26;;;;;;;23.05;5.37;;;;;;;24.84;45.33;98984.29;1691630;84;20890;-72
2022/08/27 09:16:54;;;;;;;26.30;5.92;;;;;;;24.84;43.30;98983.53;1696488;83;21072;-72
2022/08/27 09:19:26;;;;;;;19.70;5.00;;;;;;;24.79;44.02;98988.22;1703521;83;21503;-71
2022/08/27 09:22:37;;;;;;;14.43;4.45;;;;;;;24.78;44.27;98993.65;1696292;83;21569;-72
2022/08/27 09:25:19;;;;;;;16.32;5.10;;;;;;;24.78;44.20;98987.42;1685136;84;21088;-72
2022/08/27 09:27:52;;;;;;;17.25;5.20;;;;;;;24.85;45.60;98999.12;1700005;84;21146;-72
2022/08/27 09:30:28;;;;;;;27.93;5.53;;;;;;;24.88;44.75;98994.86;1707451;83;20965;-71
2022/08/27 09:33:03;;;;;;;18.77;5.58;;;;;;;24.87;45.15;98994.67;1703059;83;21524;-72
2022/08/27 09:35:45;;;;;;;13.48;5.05;;;;;;;24.86;45.48;98994.48;1691778;82;21748;-73
2022/08/27 09:38:29;;;;;;;17.00;5.28;;;;;;;24.87;45.76;98999.49;1670199;84;20949;-71
2022/08/27 09:41:05;;;;;;;25.05;5.40;;;;;;;24.88;46.65;98989.24;1687894;83;20979;-72
2022/08/27 09:43:42;;;;;;;19.05;5.55;;;;;;;24.92;45.84;98996.20;1691197;84;21440;-71
2022/08/27 09:46:20;;;;;;;11.45;4.58;;;;;;;24.94;46.50;98998.77;1699457;84;20889;-72
2022/08/27 09:48:52;;;;;;;16.15;5.17;;;;;;;24.95;46.39;98999.56;1660240;84;20952;-72
2022/08/27 09:51:26;;;;;;;14.03;4.85;;;;;;;24.98;47.48;99000.14;1655126;86;21515;-72
2022/08/27 09:54:07;;;;;;;13.48;5.30;;;;;;;25.05;47.14;99002.05;1624557;87;21013;-71
2022/08/27 09:56:38;;;;;;;19.35;6.15;;;;;;;25.11;46.50;99001.75;1630307;87;21570;-72
2022/08/27 09:59:11;;;;;;;20.88;5.65;;;;;;;25.22;46.91;99003.77;1658006;86;21577;-72
2022/08/27 10:02:14;;;;;;;20.20;5.85;;;;;;;25.33;46.80;98998.76;1627034;87;21273;-71
2022/08/27 10:04:53;;;;;;;19.77;5.95;;;;;;;25.48;47.55;98995.84;1677604;83;20980;-72
2022/08/27 10:07:51;;;;;;;15.35;5.10;;;;;;;25.72;46.58;98995.84;1698031;83;21145;-72
2022/08/27 10:10:30;;;;;;;29.18;6.30;;;;;;;25.89;46.19;98989.88;1689687;83;21116;-72
2022/08/27 10:13:12;;;;;;;16.23;6.05;;;;;;;26.09;46.42;98989.05;1689586;83;20965;-72
2022/08/27 10:16:23;;;;;;;26.45;5.65;;;;;;;26.27;46.59;98983.23;1709354;83;21178;-71
2022/08/27 10:19:17;;;;;;;24.75;5.53;;;;;;;26.49;45.94;98983.58;1699268;83;20966;-72
2022/08/27 10:22:30;;;;;;;18.10;5.80;;;;;;;26.76;45.26;98981.92;1696054;83;20922;-71
2022/08/27 10:25:39;;;;;;;27.62;6.83;;;;;;;27.02;45.40;98982.14;1692363;83;21017;-72
2022/08/27 10:28:32;;;;;;;30.23;7.28;;;;;;;27.27;44.03;98983.07;1668933;84;21077;-73
2022/08/27 10:31:14;;;;;;;30.80;7.40;;;;;;;27.59;43.76;98978.64;1655963;85;21623;-72
2022/08/27 10:34:10;;;;;;;47.90;8.90;;;;;;;27.79;40.21;98982.70;1682530;82;20945;-75
2022/08/27 10:36:51;;;;;;;34.65;6.25;;;;;;;27.90;38.79;98981.78;1688748;84;20901;-72
2022/08/27 10:39:29;;;;;;;39.83;6.47;;;;;;;28.01;37.48;98982.89;1699345;84;20938;-72
2022/08/27 10:42:31;;;;;;;31.90;6.12;;;;;;;28.09;36.97;98982.23;1696439;83;21565;-73
2022/08/27 10:45:41;;;;;;;25.40;5.50;;;;;;;28.11;35.65;98980.37;1667783;83;21741;-74
2022/08/27 10:48:23;;;;;;;19.02;5.25;;;;;;;28.08;35.34;98982.06;1632290;86;20968;-71
2022/08/27 10:51:17;;;;;;;31.85;6.40;;;;;;;28.10;36.54;98984.44;1672936;83;20922;-70
2022/08/27 10:54:14;;;;;;;30.62;4.83;;;;;;;28.20;37.34;98991.80;1681581;83;20954;-76
2022/08/27 10:57:06;;;;;;;20.68;4.00;;;;;;;28.31;34.80;98990.10;1703812;83;20969;-72
2022/08/27 10:59:52;;;;;;;30.90;5.00;;;;;;;28.47;35.67;98982.92;1704997;83;21198;-73
2022/08/27 11:02:45;;;;;;;25.43;4.90;;;;;;;29.01;35.59;98987.05;1698306;83;21005;-75
2022/08/27 11:05:32;;;;;;;26.87;5.15;;;;;;;29.79;32.68;98979.31;1700244;83;21025;-72
2022/08/27 11:08:44;;;;;;;23.02;5.17;;;;;;;30.53;29.83;98974.29;1645096;83;20927;-72
2022/08/27 11:11:22;;;;;;;45.75;4.95;;;;;;;31.11;31.89;98978.59;1700793;83;21602;-71
2022/08/27 11:13:52;;;;;;;24.15;5.05;;;;;;;31.81;27.28;98982.45;1665614;83;21213;-71
2022/08/27 11:16:27;;;;;;;34.80;5.62;;;;;;;32.16;26.29;98975.79;1699334;83;20968;-72
2022/08/27 11:19:02;;;;;;;21.62;4.12;;;;;;;32.50;26.48;98970.34;1693014;83;21444;-70
2022/08/27 11:21:42;;;;;;;22.15;5.05;;;;;;;32.70;24.75;98966.16;1666605;84;21576;-71
2022/08/27 11:24:35;;;;;;;31.65;4.80;;;;;;;32.86;25.38;98964.37;1685887;83;21503;-69
2022/08/27 11:27:08;;;;;;;86.50;9.05;;;;;;;33.07;23.68;98963.28;1652241;84;21464;-70
2022/08/27 11:29:44;;;;;;;23.73;4.42;;;;;;;33.26;22.46;98961.75;1680518;84;20995;-69
2022/08/27 11:32:37;;;;;;;29.65;4.12;;;;;;;33.10;22.72;98958.05;1683596;84;21074;-69
2022/08/27 11:35:25;;;;;;;56.50;5.53;;;;;;;33.02;23.81;98963.95;1667545;84;21136;-70
2022/08/27 11:38:19;;;;;;;27.95;3.62;;;;;;;33.31;23.39;98966.17;1701856;83;20902;-71
2022/08/27 11:41:07;;;;;;;24.67;3.95;;;;;;;33.57;20.47;98962.16;1703891;83;21504;-70
2022/08/27 11:43:36;;;;;;;46.45;5.37;;;;;;;33.64;21.52;98958.15;1702129;83;21005;-70
2022/08/27 11:46:07;;;;;;;18.12;3.65;;;;;;;33.89;20.47;98961.91;1699637;83;20978;-70
2022/08/27 11:48:41;;;;;;;24.77;4.67;;;;;;;33.94;20.60;98956.17;1701313;83;21134;-69
2022/08/27 11:51:13;;;;;;;22.75;4.60;;;;;;;33.97;21.59;98955.20;1689231;84;20894;-71
2022/08/27 11:53:44;;;;;;;22.50;4.20;;;;;;;34.05;22.18;98968.56;1700094;83;21253;-70
2022/08/27 11:56:15;;;;;;;19.52;3.90;;;;;;;34.07;21.82;98959.53;1698163;83;20965;-72
2022/08/27 11:58:43;;;;;;;63.20;6.35;;;;;;;34.12;22.17;98961.66;1684367;83;21598;-72
2022/08/27 12:01:30;;;;;;;14.87;3.95;;;;;;;34.30;21.56;98967.20;1670975;84;20977;-70
2022/08/27 12:04:05;;;;;;;16.55;3.67;;;;;;;34.50;21.28;98960.80;1664643;85;20995;-72
2022/08/27 12:06:43;;;;;;;12.68;3.95;;;;;;;34.63;22.21;98959.84;1659905;85;21276;-69
2022/08/27 12:09:20;;;;;;;25.45;4.58;;;;;;;34.60;21.84;98960.05;1654948;85;21070;-70
2022/08/27 12:12:08;;;;;;;29.92;4.85;;;;;;;34.52;22.87;98962.52;1656527;84;21652;-71